Time;durP1;ratioP1;P1;durP2;ratioP2;P2;SDS_P1;SDS_P2;PMS_P1;PMS_P2;Temp;Humidity;BMP_temperature;BMP_pressure;BME280_temperature;BME280_humidity;BME280_pressure;Samples;Min_cycle;Max_cycle;Signal;HPM_P1;HPM_P2
2022/11/09 00:01:12;;;;;;;;;;;;;7.80;98069.80;;;;108959;1268;41245;-62
2022/11/09 00:03:42;;;;;;;;;;;;;7.70;98070.40;;;;108937;1268;41199;-62
2022/11/09 00:06:12;;;;;;;;;;;;;7.70;98073.40;;;;108924;1268;41153;-62
2022/11/09 00:08:41;;;;;;;;;;;;;7.70;98071.20;;;;108975;1268;42138;-62
2022/11/09 00:11:11;;;;;;;;;;;;;7.60;98078.60;;;;109014;1268;41815;-62
2022/11/09 00:13:41;;;;;;;;;;;;;7.60;98080.20;;;;108974;1268;41170;-62
2022/11/09 00:16:10;;;;;;;;;;;;;7.50;98075.40;;;;109010;1268;41900;-62
2022/11/09 00:18:46;;;;;;;;;;;;;7.40;98078.00;;;;108935;1268;41143;-62
2022/11/09 00:21:16;;;;;;;;;;;;;7.40;98077.60;;;;109043;1268;41169;-63
2022/11/09 00:23:46;;;;;;;;;;;;;7.30;98078.20;;;;109052;1268;41617;-63
2022/11/09 00:26:17;;;;;;;;;;;;;7.30;98075.40;;;;109025;1268;41227;-62
2022/11/09 00:28:46;;;;;;;;;;;;;7.20;98080.60;;;;109082;1268;41624;-62
2022/11/09 00:31:17;;;;;;;;;;;;;7.16;98072.40;;;;109012;1264;42280;-63
2022/11/09 00:33:50;;;;;;;;;;;;;7.10;98074.40;;;;108965;1266;41147;-63
2022/11/09 00:36:19;;;;;;;;;;;;;7.10;98071.20;;;;109002;1268;42197;-63
2022/11/09 00:38:50;;;;;;;;;;;;;7.00;98076.00;;;;109030;1268;42563;-63
2022/11/09 00:41:19;;;;;;;;;;;;;7.00;98075.40;;;;108908;1270;41603;-63
2022/11/09 00:43:49;;;;;;;;;;;;;6.90;98070.40;;;;108995;1268;41232;-62
2022/11/09 00:46:19;;;;;;;;;;;;;6.90;98070.20;;;;108973;1268;41955;-63
2022/11/09 00:48:53;;;;;;;;;;;;;6.90;98065.40;;;;108937;1272;42567;-62
2022/11/09 00:51:24;;;;;;;;;;;;;7.00;98063.40;;;;108921;1268;41145;-62
2022/11/09 00:53:56;;;;;;;;;;;;;7.00;98061.00;;;;108985;1268;41153;-62
2022/11/09 00:56:26;;;;;;;;;;;;;7.00;98054.60;;;;108948;1268;41143;-62
2022/11/09 00:58:56;;;;;;;;;;;;;7.00;98055.80;;;;109041;1267;41145;-63
2022/11/09 01:01:27;;;;;;;;;;;;;7.00;98054.40;;;;108990;1265;41150;-63
2022/11/09 01:03:56;;;;;;;;;;;;;7.00;98054.60;;;;109051;1268;41234;-62
2022/11/09 01:06:26;;;;;;;;;;;;;7.00;98057.40;;;;109061;1268;41230;-62
2022/11/09 01:08:55;;;;;;;;;;;;;7.00;98056.80;;;;109044;1268;41946;-62
2022/11/09 01:11:27;;;;;;;;;;;;;7.00;98056.60;;;;108909;1271;41152;-62
2022/11/09 01:13:57;;;;;;;;;;;;;7.00;98050.20;;;;109049;1268;41983;-62
2022/11/09 01:16:26;;;;;;;;;;;;;7.00;98054.80;;;;109029;1268;41412;-62
2022/11/09 01:18:57;;;;;;;;;;;;;7.00;98048.40;;;;109035;1268;42253;-63
2022/11/09 01:21:27;;;;;;;;;;;;;7.00;98054.80;;;;109083;1268;41140;-63
2022/11/09 01:24:00;;;;;;;;;;;;;7.00;98053.00;;;;108932;1268;41618;-62
2022/11/09 01:26:30;;;;;;;;;;;;;7.00;98049.80;;;;109050;1268;41244;-62
2022/11/09 01:29:00;;;;;;;;;;;;;7.00;98048.20;;;;109032;1268;41226;-62
2022/11/09 01:31:29;;;;;;;;;;;;;7.00;98047.60;;;;109010;1271;41142;-62
2022/11/09 01:34:01;;;;;;;;;;;;;7.00;98051.80;;;;108954;1272;41721;-62
2022/11/09 01:36:34;;;;;;;;;;;;;7.00;98045.20;;;;109055;1271;41177;-62
2022/11/09 01:39:04;;;;;;;;;;;;;7.00;98041.60;;;;109031;1270;41142;-62
2022/11/09 01:41:34;;;;;;;;;;;;;7.00;98040.20;;;;109035;1268;41579;-62
2022/11/09 01:44:12;;;;;;;;;;;;;6.96;98040.00;;;;109074;1270;41139;-62
2022/11/09 01:46:42;;;;;;;;;;;;;6.94;98042.60;;;;109038;1271;41230;-62
2022/11/09 01:49:12;;;;;;;;;;;;;6.90;98040.80;;;;108932;1271;41144;-62
2022/11/09 01:51:43;;;;;;;;;;;;;6.90;98044.00;;;;109076;1272;41140;-62
2022/11/09 01:54:17;;;;;;;;;;;;;6.90;98042.40;;;;109098;1271;41173;-62
2022/11/09 01:56:49;;;;;;;;;;;;;6.84;98034.80;;;;109020;1271;41836;-63
2022/11/09 01:59:19;;;;;;;;;;;;;6.80;98032.40;;;;108893;1272;41891;-63
2022/11/09 02:01:49;;;;;;;;;;;;;6.80;98036.20;;;;108913;1271;41178;-62
2022/11/09 02:04:21;;;;;;;;;;;;;6.70;98033.20;;;;108934;1272;41194;-62
2022/11/09 02:06:51;;;;;;;;;;;;;6.70;98034.80;;;;108833;1271;41145;-62
2022/11/09 02:09:21;;;;;;;;;;;;;6.60;98033.60;;;;108996;1272;41291;-62
2022/11/09 02:11:52;;;;;;;;;;;;;6.60;98035.00;;;;109010;1272;41156;-62
2022/11/09 02:14:21;;;;;;;;;;;;;6.60;98037.80;;;;108842;1271;41145;-61
2022/11/09 02:16:51;;;;;;;;;;;;;6.60;98038.00;;;;108775;1272;41147;-61
2022/11/09 02:19:21;;;;;;;;;;;;;6.60;98039.40;;;;108937;1273;42160;-61
2022/11/09 02:21:52;;;;;;;;;;;;;6.54;98041.40;;;;108798;1273;41149;-63
2022/11/09 02:24:25;;;;;;;;;;;;;6.50;98037.20;;;;108976;1268;41245;-63
2022/11/09 02:26:55;;;;;;;;;;;;;6.50;98040.40;;;;109014;1272;41240;-62
2022/11/09 02:29:31;;;;;;;;;;;;;6.46;98038.60;;;;108945;1271;41840;-63
2022/11/09 02:32:03;;;;;;;;;;;;;6.40;98046.20;;;;108969;1271;41180;-62
2022/11/09 02:34:33;;;;;;;;;;;;;6.40;98048.40;;;;108810;1273;41147;-61
2022/11/09 02:37:05;;;;;;;;;;;;;6.40;98048.60;;;;109048;1270;41410;-62
2022/11/09 02:39:38;;;;;;;;;;;;;6.38;98045.60;;;;109004;1263;41152;-62
2022/11/09 02:42:10;;;;;;;;;;;;;6.32;98046.60;;;;109090;1272;41159;-61
2022/11/09 02:44:48;;;;;;;;;;;;;6.30;98045.60;;;;109016;1271;41132;-62
2022/11/09 02:47:19;;;;;;;;;;;;;6.30;98049.00;;;;108960;1273;41140;-62
2022/11/09 02:49:50;;;;;;;;;;;;;6.30;98050.40;;;;109023;1270;41237;-62
2022/11/09 02:52:20;;;;;;;;;;;;;6.30;98044.40;;;;109021;1271;41602;-62
2022/11/09 02:54:52;;;;;;;;;;;;;6.30;98046.60;;;;109014;1269;41165;-62
2022/11/09 02:57:23;;;;;;;;;;;;;6.30;98045.40;;;;108969;1273;41616;-62
2022/11/09 02:59:54;;;;;;;;;;;;;6.30;98040.40;;;;108959;1272;41156;-62
2022/11/09 03:02:26;;;;;;;;;;;;;6.30;98046.00;;;;109050;1272;42155;-62
2022/11/09 03:04:58;;;;;;;;;;;;;6.30;98047.20;;;;109032;1272;41141;-62
2022/11/09 03:07:29;;;;;;;;;;;;;6.22;98041.80;;;;108949;1274;41236;-62
2022/11/09 03:09:59;;;;;;;;;;;;;6.20;98044.80;;;;109029;1273;42386;-63
2022/11/09 03:12:30;;;;;;;;;;;;;6.20;98049.40;;;;108977;1273;41142;-63
2022/11/09 03:15:08;;;;;;;;;;;;;6.16;98047.60;;;;109019;1272;41623;-62
2022/11/09 03:17:42;;;;;;;;;;;;;6.10;98045.40;;;;109051;1268;41237;-62
2022/11/09 03:20:12;;;;;;;;;;;;;6.10;98050.60;;;;108914;1270;41303;-62
2022/11/09 03:22:43;;;;;;;;;;;;;6.06;98050.20;;;;108887;1272;41231;-62
2022/11/09 03:25:13;;;;;;;;;;;;;6.08;98048.80;;;;108913;1270;41147;-62
2022/11/09 03:27:44;;;;;;;;;;;;;6.10;98051.80;;;;109047;1272;42022;-62
2022/11/09 03:30:17;;;;;;;;;;;;;6.10;98049.20;;;;108996;1270;41153;-63
2022/11/09 03:32:48;;;;;;;;;;;;;6.10;98052.20;;;;109033;1273;41626;-62
2022/11/09 03:35:19;;;;;;;;;;;;;6.10;98051.40;;;;108984;1270;41756;-62
2022/11/09 03:37:49;;;;;;;;;;;;;6.10;98053.40;;;;109038;1272;41619;-62
2022/11/09 03:40:19;;;;;;;;;;;;;6.10;98051.20;;;;109006;1272;41209;-62
2022/11/09 03:42:49;;;;;;;;;;;;;6.10;98053.60;;;;108949;1273;41496;-62
2022/11/09 03:45:18;;;;;;;;;;;;;6.10;98052.80;;;;109007;1264;41180;-62
2022/11/09 03:47:48;;;;;;;;;;;;;6.10;98054.80;;;;109070;1272;41154;-61
2022/11/09 03:50:18;;;;;;;;;;;;;6.10;98050.60;;;;109086;1272;42138;-61
2022/11/09 03:52:48;;;;;;;;;;;;;6.10;98049.60;;;;108992;1270;41145;-62
2022/11/09 03:55:17;;;;;;;;;;;;;6.10;98050.20;;;;109002;1270;41158;-62
2022/11/09 03:57:47;;;;;;;;;;;;;6.10;98044.80;;;;109051;1272;41698;-62
2022/11/09 04:00:18;;;;;;;;;;;;;6.10;98047.40;;;;109059;1272;41131;-62
2022/11/09 04:02:47;;;;;;;;;;;;;6.10;98047.40;;;;108975;1272;42204;-62
2022/11/09 04:05:16;;;;;;;;;;;;;6.10;98044.00;;;;109060;1272;41346;-63
2022/11/09 04:07:45;;;;;;;;;;;;;6.10;98049.40;;;;109005;1266;41145;-61
2022/11/09 04:10:15;;;;;;;;;;;;;6.10;98045.60;;;;109021;1272;42195;-61
2022/11/09 04:12:44;;;;;;;;;;;;;6.10;98051.60;;;;109034;1272;41137;-62
2022/11/09 04:15:14;;;;;;;;;;;;;6.10;98051.60;;;;109068;1270;41427;-62
2022/11/09 04:17:45;;;;;;;;;;;;;6.12;98053.60;;;;109047;1272;41167;-62
2022/11/09 04:20:14;;;;;;;;;;;;;6.12;98048.60;;;;109063;1270;41482;-62
2022/11/09 04:22:43;;;;;;;;;;;;;6.12;98042.60;;;;109019;1272;41615;-62
2022/11/09 04:25:11;;;;;;;;;;;;;6.10;98046.20;;;;109001;1269;41892;-62
2022/11/09 04:27:40;;;;;;;;;;;;;6.10;98051.00;;;;108949;1272;41377;-62
2022/11/09 04:30:10;;;;;;;;;;;;;6.10;98051.20;;;;109026;1269;41623;-62
2022/11/09 04:32:38;;;;;;;;;;;;;6.08;98053.20;;;;109043;1271;41564;-62
2022/11/09 04:35:08;;;;;;;;;;;;;6.02;98051.40;;;;109074;1269;41217;-62
2022/11/09 04:37:37;;;;;;;;;;;;;6.02;98048.40;;;;109057;1272;42034;-62
2022/11/09 04:40:07;;;;;;;;;;;;;6.02;98051.20;;;;109071;1272;41375;-63
2022/11/09 04:42:36;;;;;;;;;;;;;6.04;98049.00;;;;109046;1272;41174;-62
2022/11/09 04:45:05;;;;;;;;;;;;;6.00;98054.40;;;;109030;1272;41145;-62
2022/11/09 04:47:34;;;;;;;;;;;;;6.00;98049.40;;;;109057;1268;41164;-62
2022/11/09 04:50:04;;;;;;;;;;;;;6.00;98053.00;;;;109061;1271;41686;-62
2022/11/09 04:52:33;;;;;;;;;;;;;6.00;98055.60;;;;109049;1270;41668;-62
2022/11/09 04:55:03;;;;;;;;;;;;;6.00;98056.00;;;;109061;1272;41140;-62
2022/11/09 04:57:33;;;;;;;;;;;;;6.00;98060.80;;;;108997;1272;41612;-62
2022/11/09 05:00:02;;;;;;;;;;;;;6.00;98060.40;;;;109033;1270;41157;-61
2022/11/09 05:02:31;;;;;;;;;;;;;6.00;98066.80;;;;109047;1272;41140;-62
2022/11/09 05:05:00;;;;;;;;;;;;;6.00;98061.60;;;;109061;1262;41156;-61
2022/11/09 05:07:30;;;;;;;;;;;;;6.00;98066.60;;;;109040;1269;41623;-61
2022/11/09 05:09:58;;;;;;;;;;;;;6.00;98070.00;;;;109015;1269;41408;-62
2022/11/09 05:12:27;;;;;;;;;;;;;6.00;98068.80;;;;109031;1269;41627;-62
2022/11/09 05:14:56;;;;;;;;;;;;;6.00;98069.80;;;;109043;1269;41231;-62
2022/11/09 05:17:25;;;;;;;;;;;;;6.00;98077.40;;;;109042;1269;41837;-62
2022/11/09 05:19:53;;;;;;;;;;;;;6.02;98077.60;;;;109042;1269;41629;-62
2022/11/09 05:25:27;;;;;;;;;;;;;6.00;98080.00;;;;108689;1273;41731;-63
2022/11/09 05:27:57;;;;;;;;;;;;;6.06;98077.80;;;;109052;1269;41242;-61
2022/11/09 05:30:26;;;;;;;;;;;;;6.08;98087.00;;;;108955;1266;41134;-63
2022/11/09 05:32:54;;;;;;;;;;;;;6.08;98086.80;;;;108935;1271;41147;-63
2022/11/09 05:35:23;;;;;;;;;;;;;6.10;98090.20;;;;108995;1266;41224;-63
2022/11/09 05:37:52;;;;;;;;;;;;;6.10;98091.40;;;;109030;1268;41315;-62
2022/11/09 05:40:21;;;;;;;;;;;;;6.10;98094.60;;;;109073;1269;41604;-62
2022/11/09 05:42:50;;;;;;;;;;;;;6.10;98095.20;;;;109070;1268;41519;-62
2022/11/09 05:45:19;;;;;;;;;;;;;6.10;98097.60;;;;108917;1272;41230;-61
2022/11/09 05:48:07;;;;;;;;;;;;;6.10;98101.80;;;;109038;1269;41136;-62
2022/11/09 05:50:36;;;;;;;;;;;;;6.10;98103.20;;;;109059;1269;41708;-62
2022/11/09 05:53:18;;;;;;;;;;;;;6.10;98109.80;;;;109010;1270;41203;-62
2022/11/09 05:55:47;;;;;;;;;;;;;6.10;98105.40;;;;109047;1269;41176;-62
2022/11/09 05:58:17;;;;;;;;;;;;;6.10;98111.80;;;;109059;1269;41138;-62
2022/11/09 06:00:46;;;;;;;;;;;;;6.20;98108.60;;;;109021;1268;41162;-62
2022/11/09 06:03:15;;;;;;;;;;;;;6.20;98111.80;;;;108995;1268;41214;-62
2022/11/09 06:05:44;;;;;;;;;;;;;6.30;98113.40;;;;108996;1262;41620;-62
2022/11/09 06:08:13;;;;;;;;;;;;;6.30;98116.60;;;;108989;1268;41146;-62
2022/11/09 06:10:42;;;;;;;;;;;;;6.30;98119.60;;;;109064;1268;41230;-62
2022/11/09 06:13:11;;;;;;;;;;;;;6.32;98118.00;;;;109022;1267;41174;-62
2022/11/09 06:15:40;;;;;;;;;;;;;6.40;98116.40;;;;108979;1269;41201;-62
2022/11/09 06:18:08;;;;;;;;;;;;;6.40;98114.60;;;;109009;1269;41141;-63
2022/11/09 06:20:37;;;;;;;;;;;;;6.40;98122.80;;;;109039;1265;42027;-60
2022/11/09 06:23:05;;;;;;;;;;;;;6.40;98118.40;;;;108964;1268;41243;-60
2022/11/09 06:25:34;;;;;;;;;;;;;6.40;98123.40;;;;108920;1269;41609;-60
2022/11/09 06:28:03;;;;;;;;;;;;;6.40;98118.40;;;;108921;1269;41609;-61
2022/11/09 06:30:31;;;;;;;;;;;;;6.46;98122.80;;;;109020;1269;41145;-62
2022/11/09 06:33:00;;;;;;;;;;;;;6.50;98122.60;;;;108999;1267;41163;-62
2022/11/09 06:35:30;;;;;;;;;;;;;6.50;98123.40;;;;108995;1268;41235;-62
2022/11/09 06:37:59;;;;;;;;;;;;;6.54;98125.60;;;;109007;1268;41397;-62
2022/11/09 06:40:27;;;;;;;;;;;;;6.52;98119.60;;;;109029;1268;41396;-62
2022/11/09 06:42:57;;;;;;;;;;;;;6.56;98126.40;;;;109103;1264;41617;-62
2022/11/09 06:45:26;;;;;;;;;;;;;6.50;98128.40;;;;109030;1269;41387;-62
2022/11/09 06:47:55;;;;;;;;;;;;;6.60;98126.60;;;;109010;1263;41389;-62
2022/11/09 06:50:25;;;;;;;;;;;;;6.60;98126.60;;;;109036;1268;41872;-62
2022/11/09 06:52:58;;;;;;;;;;;;;6.70;98126.80;;;;108999;1268;41142;-62
2022/11/09 06:55:27;;;;;;;;;;;;;6.70;98128.40;;;;109028;1268;41606;-62
2022/11/09 06:57:55;;;;;;;;;;;;;6.80;98125.80;;;;109033;1268;41136;-62
2022/11/09 07:00:24;;;;;;;;;;;;;6.90;98124.40;;;;109033;1268;41687;-62
2022/11/09 07:02:53;;;;;;;;;;;;;6.90;98123.20;;;;109041;1269;41931;-62
2022/11/09 07:05:22;;;;;;;;;;;;;6.92;98123.20;;;;109034;1268;41621;-62
2022/11/09 07:07:51;;;;;;;;;;;;;7.00;98111.80;;;;108975;1268;41159;-62
2022/11/09 07:10:20;;;;;;;;;;;;;7.10;98112.60;;;;108908;1267;41146;-62
2022/11/09 07:12:48;;;;;;;;;;;;;7.10;98106.00;;;;109000;1264;41609;-62
2022/11/09 07:15:17;;;;;;;;;;;;;7.10;98106.20;;;;109023;1268;42028;-62
2022/11/09 07:17:46;;;;;;;;;;;;;7.10;98100.80;;;;109029;1268;41145;-62
2022/11/09 07:20:14;;;;;;;;;;;;;7.20;98104.40;;;;109024;1268;41141;-62
2022/11/09 07:22:43;;;;;;;;;;;;;7.30;98102.00;;;;109031;1268;41405;-61
2022/11/09 07:25:12;;;;;;;;;;;;;7.40;98098.80;;;;108980;1268;41152;-61
2022/11/09 07:27:41;;;;;;;;;;;;;7.40;98098.80;;;;108797;1268;315275;-61
2022/11/09 07:30:10;;;;;;;;;;;;;7.50;98096.80;;;;109066;1260;41164;-61
2022/11/09 07:32:38;;;;;;;;;;;;;7.58;98101.00;;;;109039;1264;41177;-62
2022/11/09 07:35:27;;;;;;;;;;;;;7.60;98102.00;;;;109006;1260;41146;-61
2022/11/09 07:38:00;;;;;;;;;;;;;7.60;98102.60;;;;109026;1268;41140;-61
2022/11/09 07:40:28;;;;;;;;;;;;;7.70;98104.40;;;;109007;1268;41150;-61
2022/11/09 07:42:58;;;;;;;;;;;;;7.80;98098.00;;;;108933;1268;41159;-61
2022/11/09 07:45:28;;;;;;;;;;;;;7.86;98103.80;;;;109002;1268;41232;-61
2022/11/09 07:47:57;;;;;;;;;;;;;7.90;98101.60;;;;109037;1268;41230;-62
2022/11/09 07:50:26;;;;;;;;;;;;;8.00;98103.20;;;;109080;1268;41160;-61
2022/11/09 07:52:55;;;;;;;;;;;;;8.02;98103.60;;;;109033;1268;41331;-63
2022/11/09 07:55:25;;;;;;;;;;;;;8.10;98104.20;;;;109012;1268;41158;-62
2022/11/09 07:57:54;;;;;;;;;;;;;8.20;98100.40;;;;108984;1268;41743;-62
2022/11/09 08:00:23;;;;;;;;;;;;;8.20;98100.80;;;;109056;1267;41504;-62
2022/11/09 08:02:52;;;;;;;;;;;;;8.20;98097.20;;;;108978;1266;41733;-61
2022/11/09 08:05:20;;;;;;;;;;;;;8.30;98094.40;;;;108934;1268;41992;-61
2022/11/09 08:07:56;;;;;;;;;;;;;8.30;98094.20;;;;109006;1268;41145;-62
2022/11/09 08:10:25;;;;;;;;;;;;;8.40;98097.40;;;;109070;1268;41140;-63
2022/11/09 08:12:57;;;;;;;;;;;;;8.50;98100.60;;;;109010;1268;41268;-62
2022/11/09 08:15:27;;;;;;;;;;;;;8.50;98098.00;;;;109050;1268;42164;-62
2022/11/09 08:17:59;;;;;;;;;;;;;8.58;98097.00;;;;108987;1268;41151;-62
2022/11/09 08:20:28;;;;;;;;;;;;;8.58;98095.00;;;;109021;1268;41634;-63
2022/11/09 08:22:57;;;;;;;;;;;;;8.60;98098.00;;;;108967;1268;41691;-63
2022/11/09 08:25:32;;;;;;;;;;;;;8.60;98090.20;;;;108988;1265;41236;-63
2022/11/09 08:28:00;;;;;;;;;;;;;8.70;98092.20;;;;109084;1268;41247;-62
2022/11/09 08:30:29;;;;;;;;;;;;;8.70;98094.00;;;;108915;1269;41133;-62
2022/11/09 08:32:58;;;;;;;;;;;;;8.80;98092.20;;;;108987;1268;42631;-62
2022/11/09 08:35:27;;;;;;;;;;;;;8.80;98092.40;;;;108937;1264;42564;-62
2022/11/09 08:37:58;;;;;;;;;;;;;8.90;98095.20;;;;108969;1269;41238;-62
2022/11/09 08:40:27;;;;;;;;;;;;;8.98;98097.40;;;;108970;1269;41173;-62
2022/11/09 08:42:59;;;;;;;;;;;;;8.90;98098.20;;;;108944;1271;41162;-62
2022/11/09 08:45:29;;;;;;;;;;;;;8.90;98100.00;;;;108985;1268;41924;-62
2022/11/09 08:47:58;;;;;;;;;;;;;8.80;98096.40;;;;108971;1268;41636;-61
2022/11/09 08:50:27;;;;;;;;;;;;;8.90;98094.60;;;;109003;1269;41318;-62
2022/11/09 08:52:56;;;;;;;;;;;;;8.90;98096.20;;;;109006;1269;42637;-62
2022/11/09 08:55:25;;;;;;;;;;;;;8.90;98092.80;;;;109010;1269;41175;-62
2022/11/09 08:57:54;;;;;;;;;;;;;9.00;98096.60;;;;109033;1267;41255;-62
2022/11/09 09:00:23;;;;;;;;;;;;;9.00;98094.20;;;;109025;1268;41236;-62
2022/11/09 09:02:51;;;;;;;;;;;;;9.00;98095.00;;;;109041;1264;41133;-62
2022/11/09 09:05:20;;;;;;;;;;;;;9.00;98091.60;;;;109030;1268;41228;-62
2022/11/09 09:07:48;;;;;;;;;;;;;9.08;98090.00;;;;109055;1268;41153;-62
2022/11/09 09:10:17;;;;;;;;;;;;;9.10;98093.80;;;;109029;1268;41682;-62
2022/11/09 09:12:46;;;;;;;;;;;;;9.10;98096.60;;;;109060;1268;41286;-62
2022/11/09 09:15:14;;;;;;;;;;;;;9.16;98094.60;;;;108994;1269;41809;-62
2022/11/09 09:17:43;;;;;;;;;;;;;9.26;98093.20;;;;109005;1268;42359;-62
2022/11/09 09:20:12;;;;;;;;;;;;;9.22;98095.00;;;;109021;1268;41613;-61
2022/11/09 09:22:40;;;;;;;;;;;;;9.30;98093.80;;;;109031;1268;41331;-62
2022/11/09 09:25:09;;;;;;;;;;;;;9.30;98090.40;;;;109044;1268;41156;-62
2022/11/09 09:27:37;;;;;;;;;;;;;9.30;98094.20;;;;109045;1268;41817;-62
2022/11/09 09:30:06;;;;;;;;;;;;;9.40;98087.20;;;;109064;1268;42010;-61
2022/11/09 09:32:35;;;;;;;;;;;;;9.50;98086.80;;;;109028;1267;41621;-62
2022/11/09 09:35:04;;;;;;;;;;;;;9.60;98080.60;;;;108961;1268;41680;-62
2022/11/09 09:37:32;;;;;;;;;;;;;9.60;98079.20;;;;108969;1268;41171;-62
2022/11/09 09:40:01;;;;;;;;;;;;;9.60;98080.40;;;;108988;1266;41884;-62
2022/11/09 09:42:35;;;;;;;;;;;;;9.60;98080.80;;;;109089;1268;41186;-62
2022/11/09 09:45:10;;;;;;;;;;;;;9.60;98078.60;;;;109045;1264;41215;-62
2022/11/09 09:47:50;;;;;;;;;;;;;9.60;98072.20;;;;108941;1269;42506;-62
2022/11/09 09:50:23;;;;;;;;;;;;;9.60;98070.20;;;;109057;1268;42271;-62
2022/11/09 09:52:57;;;;;;;;;;;;;9.70;98064.20;;;;109041;1268;41282;-63
2022/11/09 09:55:54;;;;;;;;;;;;;9.70;98066.20;;;;109031;1264;42273;-62
2022/11/09 09:58:24;;;;;;;;;;;;;9.80;98059.80;;;;109054;1268;41201;-62
2022/11/09 10:00:54;;;;;;;;;;;;;10.00;98057.40;;;;109050;1266;41471;-62
2022/11/09 10:03:22;;;;;;;;;;;;;10.20;98056.20;;;;108982;1268;41467;-62
2022/11/09 10:06:06;;;;;;;;;;;;;10.30;98050.80;;;;109002;1268;41250;-62
2022/11/09 10:08:41;;;;;;;;;;;;;10.36;98048.40;;;;109004;1265;42450;-61
2022/11/09 10:11:36;;;;;;;;;;;;;10.38;98048.20;;;;109019;1268;42710;-62
2022/11/09 10:14:17;;;;;;;;;;;;;10.30;98044.40;;;;109056;1267;41154;-63
2022/11/09 10:16:48;;;;;;;;;;;;;10.40;98044.00;;;;109063;1268;41182;-64
2022/11/09 10:19:26;;;;;;;;;;;;;10.50;98044.80;;;;108987;1268;41234;-63
2022/11/09 10:21:59;;;;;;;;;;;;;10.60;98042.80;;;;108955;1268;41235;-61
2022/11/09 10:24:34;;;;;;;;;;;;;10.60;98041.60;;;;109081;1267;41790;-62
2022/11/09 10:27:09;;;;;;;;;;;;;10.60;98037.20;;;;109062;1268;41358;-62
2022/11/09 10:29:39;;;;;;;;;;;;;10.50;98031.80;;;;109029;1268;42135;-63
2022/11/09 10:32:08;;;;;;;;;;;;;10.50;98034.00;;;;109063;1268;41142;-63
2022/11/09 10:34:46;;;;;;;;;;;;;10.50;98026.80;;;;108978;1266;41246;-62
2022/11/09 10:37:22;;;;;;;;;;;;;10.54;98029.80;;;;109020;1268;42200;-62
2022/11/09 10:39:57;;;;;;;;;;;;;10.60;98025.40;;;;108933;1268;41164;-62
2022/11/09 10:42:52;;;;;;;;;;;;;10.80;98017.80;;;;109005;1268;41746;-63
2022/11/09 10:45:40;;;;;;;;;;;;;10.90;98014.60;;;;109015;1268;41149;-62
2022/11/09 10:48:32;;;;;;;;;;;;;11.10;98013.80;;;;108999;1266;41881;-62
2022/11/09 10:51:34;;;;;;;;;;;;;11.30;98008.00;;;;109020;1268;41358;-62
2022/11/09 10:54:23;;;;;;;;;;;;;11.52;98002.00;;;;109053;1268;42390;-63
2022/11/09 10:57:10;;;;;;;;;;;;;11.80;97997.80;;;;109019;1265;42848;-61
2022/11/09 10:59:57;;;;;;;;;;;;;12.06;97987.20;;;;108983;1268;41259;-62
2022/11/09 11:02:46;;;;;;;;;;;;;12.40;97990.20;;;;109057;1268;41593;-63
2022/11/09 11:05:33;;;;;;;;;;;;;12.68;97982.60;;;;109027;1268;41156;-63
2022/11/09 11:08:22;;;;;;;;;;;;;12.78;97983.20;;;;109007;1264;41298;-62
2022/11/09 11:11:16;;;;;;;;;;;;;12.76;97981.20;;;;109025;1267;41619;-63
2022/11/09 11:14:31;;;;;;;;;;;;;12.80;97976.40;;;;109058;1268;41158;-63
2022/11/09 11:17:27;;;;;;;;;;;;;12.70;97979.60;;;;108976;1268;41176;-63
2022/11/09 11:20:33;;;;;;;;;;;;;12.70;97977.40;;;;109005;1268;42434;-63
2022/11/09 11:23:21;;;;;;;;;;;;;12.80;97972.80;;;;108996;1268;41147;-64
2022/11/09 11:26:19;;;;;;;;;;;;;13.10;97968.40;;;;108992;1268;41277;-64
2022/11/09 11:29:13;;;;;;;;;;;;;13.84;97964.80;;;;109112;1268;41243;-63
2022/11/09 11:32:00;;;;;;;;;;;;;14.32;97956.20;;;;108896;1268;41146;-63
2022/11/09 11:34:47;;;;;;;;;;;;;14.92;97957.20;;;;108885;1268;41163;-63
2022/11/09 11:37:53;;;;;;;;;;;;;15.20;97953.60;;;;108917;1268;42630;-63
2022/11/09 11:40:43;;;;;;;;;;;;;16.04;97946.80;;;;108954;1263;41632;-63
2022/11/09 11:43:31;;;;;;;;;;;;;17.30;97937.20;;;;108966;1268;41624;-63
2022/11/09 11:46:31;;;;;;;;;;;;;18.52;97942.20;;;;109026;1267;41148;-64
2022/11/09 11:49:25;;;;;;;;;;;;;19.00;97935.00;;;;109006;1266;41691;-64
2022/11/09 11:52:25;;;;;;;;;;;;;19.70;97928.60;;;;109023;1268;42218;-64
2022/11/09 11:55:30;;;;;;;;;;;;;20.78;97923.20;;;;109021;1268;41495;-64
2022/11/09 11:58:37;;;;;;;;;;;;;21.88;97920.80;;;;109040;1266;41231;-64
2022/11/09 12:01:27;;;;;;;;;;;;;22.98;97919.00;;;;108961;1268;41618;-64
2022/11/09 12:04:29;;;;;;;;;;;;;23.70;97909.40;;;;109019;1268;41383;-64
2022/11/09 12:07:33;;;;;;;;;;;;;24.56;97905.20;;;;109021;1268;41213;-64
2022/11/09 12:10:21;;;;;;;;;;;;;25.10;97899.00;;;;109000;1266;41156;-64
2022/11/09 12:13:11;;;;;;;;;;;;;25.64;97899.60;;;;109022;1266;41236;-64
2022/11/09 12:16:12;;;;;;;;;;;;;26.28;97891.00;;;;108963;1268;41193;-64
2022/11/09 12:19:29;;;;;;;;;;;;;26.60;97892.00;;;;108982;1268;42585;-64
2022/11/09 12:22:33;;;;;;;;;;;;;27.10;97886.80;;;;108934;1268;41242;-64
2022/11/09 12:25:20;;;;;;;;;;;;;27.20;97889.40;;;;109013;1265;41600;-64
2022/11/09 12:28:26;;;;;;;;;;;;;26.90;97887.40;;;;108985;1268;42133;-63
2022/11/09 12:31:16;;;;;;;;;;;;;26.50;97891.60;;;;109032;1265;41167;-64
2022/11/09 12:34:11;;;;;;;;;;;;;25.66;97890.80;;;;109009;1262;41173;-65
2022/11/09 12:37:06;;;;;;;;;;;;;25.74;97890.00;;;;109066;1266;41702;-65
2022/11/09 12:39:54;;;;;;;;;;;;;26.10;97883.60;;;;109005;1268;41157;-66
2022/11/09 12:42:43;;;;;;;;;;;;;26.04;97879.40;;;;109002;1266;41578;-65
2022/11/09 12:45:32;;;;;;;;;;;;;25.98;97880.80;;;;108985;1262;42360;-65
2022/11/09 12:48:29;;;;;;;;;;;;;26.00;97879.40;;;;109039;1268;41401;-65
2022/11/09 12:51:17;;;;;;;;;;;;;25.90;97876.60;;;;109089;1268;41147;-65
2022/11/09 12:54:09;;;;;;;;;;;;;26.08;97878.00;;;;108973;1266;41152;-65
2022/11/09 12:56:58;;;;;;;;;;;;;26.20;97881.60;;;;109022;1268;42193;-65
2022/11/09 12:59:47;;;;;;;;;;;;;25.88;97887.00;;;;109017;1268;43114;-65
2022/11/09 13:02:36;;;;;;;;;;;;;25.70;97886.60;;;;109014;1268;42123;-65
2022/11/09 13:05:34;;;;;;;;;;;;;25.40;97881.00;;;;108982;1268;41234;-65
2022/11/09 13:08:25;;;;;;;;;;;;;25.40;97887.00;;;;108995;1266;41177;-65
2022/11/09 13:11:24;;;;;;;;;;;;;25.40;97883.60;;;;109008;1268;41623;-66
2022/11/09 13:14:20;;;;;;;;;;;;;25.16;97884.80;;;;108995;1268;41154;-66
2022/11/09 13:17:37;;;;;;;;;;;;;24.62;97894.00;;;;108965;1268;42229;-65
2022/11/09 13:20:33;;;;;;;;;;;;;23.74;97899.40;;;;108986;1267;41478;-65
2022/11/09 13:23:40;;;;;;;;;;;;;22.14;97908.80;;;;109005;1266;41737;-63
2022/11/09 13:26:48;;;;;;;;;;;;;20.78;97917.40;;;;108919;1268;42647;-62
2022/11/09 13:29:37;;;;;;;;;;;;;18.70;97922.80;;;;109002;1265;41242;-64
2022/11/09 13:32:25;;;;;;;;;;;;;17.74;97934.00;;;;108995;1267;41907;-63
2022/11/09 13:35:30;;;;;;;;;;;;;16.80;97934.60;;;;108989;1266;42235;-64
2022/11/09 13:38:18;;;;;;;;;;;;;15.84;97937.80;;;;108980;1268;41130;-63
2022/11/09 13:41:24;;;;;;;;;;;;;15.08;97946.40;;;;108930;1264;41776;-63
2022/11/09 13:44:16;;;;;;;;;;;;;14.44;97940.20;;;;109042;1268;42269;-64
2022/11/09 13:47:03;;;;;;;;;;;;;14.00;97940.40;;;;108978;1268;42400;-63
2022/11/09 13:49:51;;;;;;;;;;;;;13.70;97941.00;;;;108996;1259;41228;-62
2022/11/09 13:52:38;;;;;;;;;;;;;13.50;97943.20;;;;108993;1265;42504;-63
2022/11/09 13:55:29;;;;;;;;;;;;;13.40;97941.40;;;;108971;1268;41693;-63
2022/11/09 13:58:24;;;;;;;;;;;;;13.24;97942.80;;;;108990;1267;41140;-63
2022/11/09 14:01:33;;;;;;;;;;;;;13.02;97939.40;;;;108973;1265;41175;-63
2022/11/09 14:04:25;;;;;;;;;;;;;12.80;97941.40;;;;109004;1266;41944;-62
2022/11/09 14:07:17;;;;;;;;;;;;;12.64;97947.20;;;;109026;1262;41933;-63
2022/11/09 14:10:17;;;;;;;;;;;;;12.50;97949.60;;;;108962;1267;41625;-62
2022/11/09 14:13:22;;;;;;;;;;;;;12.28;97950.00;;;;108958;1268;41667;-63
2022/11/09 14:16:14;;;;;;;;;;;;;12.10;97947.20;;;;108973;1267;42451;-63
2022/11/09 14:19:19;;;;;;;;;;;;;12.06;97941.80;;;;108985;1267;41144;-63
2022/11/09 14:22:13;;;;;;;;;;;;;12.00;97941.00;;;;109005;1267;41251;-63
2022/11/09 14:25:04;;;;;;;;;;;;;11.80;97943.20;;;;108960;1268;41809;-63
2022/11/09 14:27:56;;;;;;;;;;;;;11.70;97942.60;;;;109032;1265;41830;-62
2022/11/09 14:30:43;;;;;;;;;;;;;11.54;97942.00;;;;108904;1268;41562;-63